Weather at Hastings Field Heliport

Public forecast

Using degrees Celsius for public forecast. Weather courtesy of forecast.io.

Closest aviation weather report (METAR) to Hastings Field Heliport

Closest report is Victoria International Airport, 9.9 nm (18.4 km) SW.

2024/05/30 10:00 (retrieved 27 minutes ago)

CYYJ 301000Z 29010KT 20SM BKN050 BKN180 09/05 A3037 RMK SC5AC1 SLP286

Closest aviation forecast (TAF) to Hastings Field Heliport

Closest forecast is Victoria International Airport, 9.9 nm (18.4 km) SW.

2024/05/30 06:42 (retrieved 4 hours ago)

TAF CYYJ 300540Z 3006/3106 25008KT P6SM FEW080 SCT200 FM301100 27006KT P6SM BKN030 BECMG 3018/3020 12008KT FEW030 RMK NXT FCST BY 301200Z